Time;durP1;ratioP1;P1;durP2;ratioP2;P2;SDS_P1;SDS_P2;PMS_P1;PMS_P2;Temp;Humidity;BMP_temperature;BMP_pressure;BME280_temperature;BME280_humidity;BME280_pressure;Samples;Min_cycle;Max_cycle;Signal;HPM_P1;HPM_P2
2022/04/17 00:02:18;;;;;;;7.13;6.43;;;10.40;99.90;;;;;;5055018;28;20237;-77
2022/04/17 00:04:46;;;;;;;7.10;6.40;;;10.30;99.90;;;;;;5054989;28;20211;-77
2022/04/17 00:07:14;;;;;;;6.90;6.30;;;10.20;99.90;;;;;;5054881;28;20206;-77
2022/04/17 00:09:40;;;;;;;6.93;6.33;;;10.30;99.90;;;;;;5054628;28;20207;-75
2022/04/17 00:12:08;;;;;;;7.90;6.80;;;10.30;99.90;;;;;;5054983;28;20209;-74
2022/04/17 00:14:35;;;;;;;8.07;6.30;;;10.20;99.90;;;;;;5054899;28;20225;-77
2022/04/17 00:17:02;;;;;;;6.73;6.17;;;10.20;99.90;;;;;;5055106;28;20214;-77
2022/04/17 00:19:30;;;;;;;7.83;7.13;;;10.10;99.90;;;;;;5054512;28;20206;-78
2022/04/17 00:21:57;;;;;;;8.03;7.33;;;10.20;99.90;;;;;;5054660;28;20780;-74
2022/04/17 00:24:26;;;;;;;8.37;6.47;;;10.10;99.90;;;;;;5054618;28;20575;-74
2022/04/17 00:26:53;;;;;;;7.60;6.80;;;10.00;99.90;;;;;;5054865;28;20264;-74
2022/04/17 00:29:19;;;;;;;9.47;7.50;;;9.90;99.90;;;;;;5054078;28;20210;-74
2022/04/17 00:31:47;;;;;;;8.50;7.47;;;9.90;99.90;;;;;;5054379;28;20554;-75
2022/04/17 00:34:13;;;;;;;7.60;6.90;;;9.90;99.90;;;;;;5054684;28;20203;-77
2022/04/17 00:36:40;;;;;;;8.50;6.60;;;9.80;99.90;;;;;;5054789;28;20202;-74
2022/04/17 00:39:07;;;;;;;12.17;7.17;;;9.80;99.90;;;;;;5054186;28;20665;-74
2022/04/17 00:41:35;;;;;;;8.67;6.37;;;9.80;99.90;;;;;;5054608;28;20223;-75
2022/04/17 00:44:02;;;;;;;12.67;6.83;;;9.70;99.90;;;;;;5054020;28;20199;-75
2022/04/17 00:46:30;;;;;;;7.80;7.00;;;9.70;99.90;;;;;;5054730;28;20209;-78
2022/04/17 00:48:57;;;;;;;9.50;7.23;;;9.70;99.90;;;;;;5054548;28;20252;-75
2022/04/17 00:51:24;;;;;;;8.30;7.47;;;9.60;99.90;;;;;;5054548;28;20211;-74
2022/04/17 00:53:53;;;;;;;8.63;6.53;;;9.60;99.90;;;;;;5053661;28;20676;-77
2022/04/17 00:56:21;;;;;;;9.33;6.67;;;9.70;99.90;;;;;;5054085;28;20226;-75
2022/04/17 00:58:51;;;;;;;8.70;6.60;;;9.60;99.90;;;;;;5054035;28;20562;-76
2022/04/17 01:01:18;;;;;;;7.90;7.10;;;9.50;99.90;;;;;;5054174;28;20229;-77
2022/04/17 01:03:44;;;;;;;9.48;7.95;;;9.40;99.90;;;;;;5052172;28;20524;-75
2022/04/17 01:06:11;;;;;;;7.77;6.80;;;9.50;99.90;;;;;;5046368;28;20218;-74
2022/04/17 01:08:41;;;;;;;7.37;6.77;;;9.50;99.90;;;;;;5032126;28;20215;-75
2022/04/17 01:11:08;;;;;;;7.00;6.40;;;9.50;99.90;;;;;;5031650;28;20203;-79
2022/04/17 01:13:38;;;;;;;8.43;7.37;;;9.30;99.90;;;;;;5033725;28;20607;-75
2022/04/17 01:16:07;;;;;;;7.60;7.00;;;9.30;99.90;;;;;;5033811;28;20230;-76
2022/04/17 01:19:01;;;;;;;9.47;7.63;;;9.30;99.90;;;;;;5033548;28;20207;-78
2022/04/17 01:21:30;;;;;;;7.50;6.80;;;9.20;99.90;;;;;;5033364;28;20206;-77
2022/04/17 01:26:58;;;;;;;8.47;6.83;;;9.20;99.90;;;;;;5033709;28;20253;-75
2022/04/17 01:29:27;;;;;;;9.37;7.07;;;9.10;99.90;;;;;;5033619;28;20297;-74
2022/04/17 01:31:54;;;;;;;8.33;6.87;;;9.00;99.90;;;;;;5032625;28;20207;-76
2022/04/17 01:34:23;;;;;;;8.17;7.40;;;8.90;99.90;;;;;;5033741;28;20214;-75
2022/04/17 01:36:51;;;;;;;7.80;7.00;;;8.90;99.90;;;;;;5032813;28;20206;-77
2022/04/17 01:39:19;;;;;;;8.03;7.23;;;8.90;99.90;;;;;;5032989;28;20199;-74
2022/04/17 01:41:47;;;;;;;8.10;7.30;;;8.90;99.90;;;;;;5033284;28;20202;-78
2022/04/17 01:44:16;;;;;;;8.90;7.70;;;8.80;99.90;;;;;;5033211;28;20207;-78
2022/04/17 01:46:43;;;;;;;8.40;7.50;;;8.70;99.90;;;;;;5033546;28;20255;-77
2022/04/17 01:49:10;;;;;;;8.23;7.37;;;8.70;99.90;;;;;;5033119;28;20210;-76
2022/04/17 01:51:38;;;;;;;9.18;8.23;;;8.70;99.90;;;;;;5032625;28;20873;-77
2022/04/17 01:54:07;;;;;;;8.47;7.67;;;8.80;99.90;;;;;;5032998;28;20573;-75
2022/04/17 01:56:35;;;;;;;8.73;7.40;;;8.70;99.90;;;;;;5033222;28;20242;-76
2022/04/17 01:59:03;;;;;;;8.33;7.50;;;8.70;99.90;;;;;;5033130;28;20204;-78
2022/04/17 02:01:29;;;;;;;9.53;7.50;;;8.60;99.90;;;;;;5033226;28;20228;-74
2022/04/17 02:03:56;;;;;;;7.57;6.93;;;8.60;99.90;;;;;;5032729;28;20211;-77
2022/04/17 02:06:23;;;;;;;8.37;7.47;;;8.50;99.90;;;;;;5032121;28;20203;-76
2022/04/17 02:08:51;;;;;;;8.10;7.30;;;8.40;99.90;;;;;;5032026;28;20286;-74
2022/04/17 02:11:19;;;;;;;8.23;7.43;;;8.40;99.90;;;;;;5032303;28;20199;-78
2022/04/17 02:13:46;;;;;;;7.70;7.00;;;8.30;99.90;;;;;;5032233;28;20213;-75
2022/04/17 02:16:14;;;;;;;8.13;7.33;;;8.20;99.90;;;;;;5032298;28;20226;-76
2022/04/17 02:18:42;;;;;;;8.57;7.20;;;8.30;99.90;;;;;;5047153;28;20203;-75
2022/04/17 02:21:09;;;;;;;8.67;7.20;;;8.20;99.90;;;;;;5051490;28;20202;-74
2022/04/17 02:23:36;;;;;;;8.03;7.23;;;8.10;99.90;;;;;;5052295;28;20206;-74
2022/04/17 02:26:03;;;;;;;9.00;6.87;;;8.10;99.90;;;;;;5051403;28;20213;-77
2022/04/17 02:28:34;;;;;;;7.77;7.07;;;8.10;99.90;;;;;;5051679;28;20210;-77
2022/04/17 02:31:02;;;;;;;8.23;7.50;;;8.10;99.90;;;;;;5051391;28;20225;-76
2022/04/17 02:33:28;;;;;;;8.77;7.30;;;8.00;99.90;;;;;;5052083;28;20202;-77
2022/04/17 02:35:55;;;;;;;9.97;8.00;;;7.90;99.90;;;;;;5051353;28;20230;-78
2022/04/17 02:38:22;;;;;;;8.23;7.43;;;7.90;99.90;;;;;;5052009;28;20205;-78
2022/04/17 02:40:49;;;;;;;8.60;7.73;;;7.80;99.90;;;;;;5051829;28;20198;-81
2022/04/17 02:43:16;;;;;;;8.00;7.30;;;7.70;99.90;;;;;;5052880;28;20202;-77
2022/04/17 02:45:44;;;;;;;9.20;8.00;;;7.60;99.90;;;;;;5055327;28;20203;-78
2022/04/17 02:48:11;;;;;;;7.43;6.73;;;7.60;99.90;;;;;;5055020;28;20281;-77
2022/04/17 02:50:38;;;;;;;7.87;7.17;;;7.50;99.90;;;;;;5055156;28;20684;-76
2022/04/17 02:53:05;;;;;;;9.53;7.40;;;7.50;99.90;;;;;;5055157;28;20210;-81
2022/04/17 02:55:31;;;;;;;7.50;6.63;;;7.50;99.90;;;;;;5055322;28;20233;-78
2022/04/17 02:57:58;;;;;;;7.37;6.67;;;7.50;99.90;;;;;;5055125;28;20574;-80
2022/04/17 03:00:26;;;;;;;7.57;6.37;;;7.50;99.90;;;;;;5054669;28;20226;-80
2022/04/17 03:05:39;;;;;;;7.17;6.53;;;7.50;99.90;;;;;;5056089;28;20320;-77
2022/04/17 03:08:11;;;;;;;7.53;6.87;;;7.50;99.90;;;;;;5056113;28;20209;-80
2022/04/17 03:10:40;;;;;;;7.53;6.73;;;7.50;99.90;;;;;;5055876;28;20256;-79
2022/04/17 03:13:07;;;;;;;9.53;6.43;;;7.40;99.90;;;;;;5056220;28;20209;-76
2022/04/17 03:15:35;;;;;;;7.77;7.00;;;7.30;99.90;;;;;;5055832;28;20226;-77
2022/04/17 03:18:04;;;;;;;8.83;7.27;;;7.30;99.90;;;;;;5055125;28;20210;-80
2022/04/17 03:20:32;;;;;;;9.37;6.70;;;7.30;99.90;;;;;;5055554;28;20256;-79
2022/04/17 03:22:59;;;;;;;9.07;6.77;;;7.30;99.90;;;;;;5056029;28;20202;-77
2022/04/17 03:25:26;;;;;;;7.57;6.87;;;7.30;99.90;;;;;;5056201;28;20206;-81
2022/04/17 03:27:53;;;;;;;10.80;8.67;;;7.30;99.90;;;;;;5055832;28;20262;-80
2022/04/17 03:30:20;;;;;;;8.43;7.53;;;7.30;99.90;;;;;;5056024;28;20203;-81
2022/04/17 03:32:50;;;;;;;10.20;7.60;;;7.20;99.90;;;;;;5055316;28;20202;-80
2022/04/17 03:35:19;;;;;;;7.90;7.20;;;7.20;99.90;;;;;;5056181;28;20193;-77
2022/04/17 03:37:46;;;;;;;8.80;7.40;;;7.20;99.90;;;;;;5055440;28;20209;-79
2022/04/17 03:40:15;;;;;;;7.83;7.10;;;7.20;99.90;;;;;;5055962;28;20240;-78
2022/04/17 03:42:42;;;;;;;10.60;7.27;;;7.20;99.90;;;;;;5055791;28;20207;-77
2022/04/17 03:45:14;;;;;;;8.33;7.20;;;7.20;99.90;;;;;;5055688;28;20202;-77
2022/04/17 03:47:41;;;;;;;7.70;6.63;;;7.20;99.90;;;;;;5055356;28;20203;-77
2022/04/17 03:50:09;;;;;;;7.40;6.70;;;7.10;99.90;;;;;;5055747;28;20213;-78
2022/04/17 03:52:41;;;;;;;8.80;7.43;;;7.10;99.90;;;;;;5051959;28;20210;-80
2022/04/17 03:55:08;;;;;;;7.90;6.87;;;7.00;99.90;;;;;;5034676;28;20218;-78
2022/04/17 03:57:35;;;;;;;7.63;6.73;;;7.00;99.90;;;;;;5033198;28;20212;-77
2022/04/17 04:00:04;;;;;;;7.23;6.53;;;7.00;99.90;;;;;;5035011;28;20214;-77
2022/04/17 04:02:31;;;;;;;7.07;6.47;;;7.00;99.90;;;;;;5034880;28;20572;-77
2022/04/17 04:04:58;;;;;;;7.67;6.30;;;7.00;99.90;;;;;;5035303;28;20210;-77
2022/04/17 04:07:25;;;;;;;6.20;5.70;;;6.90;99.90;;;;;;5035287;28;20256;-80
2022/04/17 04:09:53;;;;;;;7.63;5.93;;;6.90;99.90;;;;;;5034467;28;20207;-77
2022/04/17 04:12:20;;;;;;;7.23;6.10;;;6.80;99.90;;;;;;5034636;28;20210;-76
2022/04/17 04:14:47;;;;;;;7.17;6.30;;;6.70;99.90;;;;;;5035449;28;20210;-77
2022/04/17 04:17:14;;;;;;;7.63;6.30;;;6.70;99.90;;;;;;5034939;28;20250;-78
2022/04/17 04:19:40;;;;;;;9.63;5.60;;;6.70;99.90;;;;;;5035155;28;20203;-77
2022/04/17 04:22:07;;;;;;;7.20;6.50;;;6.70;99.90;;;;;;5034914;28;20211;-78
2022/04/17 04:24:35;;;;;;;8.37;6.10;;;6.60;99.90;;;;;;5035149;28;20222;-77
2022/04/17 04:29:48;;;;;;;6.47;5.87;;;6.70;99.90;;;;;;5054383;28;20248;-81
2022/04/17 04:32:15;;;;;;;7.67;6.10;;;6.50;99.90;;;;;;5054602;28;20209;-79
2022/04/17 04:34:41;;;;;;;6.87;6.20;;;6.40;99.90;;;;;;5054534;28;20210;-80
2022/04/17 04:37:08;;;;;;;7.10;6.40;;;6.30;99.90;;;;;;5054053;28;20226;-80
2022/04/17 04:39:35;;;;;;;7.32;6.72;;;6.30;99.90;;;;;;5053098;28;20429;-79
2022/04/17 04:42:03;;;;;;;6.50;5.87;;;6.40;99.90;;;;;;5054766;28;20542;-77
2022/04/17 04:44:30;;;;;;;6.20;5.63;;;6.40;99.90;;;;;;5054003;28;20222;-77
2022/04/17 04:46:56;;;;;;;6.47;5.77;;;6.40;99.90;;;;;;5054613;28;20198;-83
2022/04/17 04:49:32;;;;;;;7.00;5.73;;;6.30;99.90;;;;;;5054374;28;20202;-82
2022/04/17 04:52:00;;;;;;;7.40;6.37;;;6.20;99.90;;;;;;5054510;28;20206;-82
2022/04/17 04:54:27;;;;;;;6.20;5.70;;;6.20;99.90;;;;;;5054352;28;20822;-79
2022/04/17 04:56:54;;;;;;;6.63;6.13;;;6.20;99.90;;;;;;5054258;28;20693;-78
2022/04/17 04:59:22;;;;;;;8.63;5.80;;;6.20;99.90;;;;;;5053905;28;20198;-81
2022/04/17 05:01:49;;;;;;;6.17;5.43;;;6.20;99.90;;;;;;5050801;28;20226;-79
2022/04/17 05:04:17;;;;;;;8.75;6.90;;;6.20;99.90;;;;;;5052254;28;20425;-82
2022/04/17 05:06:43;;;;;;;6.93;6.33;;;6.40;99.90;;;;;;5053538;28;20203;-80
2022/04/17 05:09:10;;;;;;;6.77;6.07;;;6.40;99.90;;;;;;5053905;28;20210;-77
2022/04/17 05:11:38;;;;;;;7.20;6.20;;;6.30;99.90;;;;;;5054148;28;20285;-82
2022/04/17 05:14:06;;;;;;;7.43;6.00;;;6.20;99.90;;;;;;5053696;28;20248;-76
2022/04/17 05:16:35;;;;;;;7.47;6.77;;;6.20;99.90;;;;;;5053898;28;20230;-81
2022/04/17 05:21:45;;;;;;;6.67;6.07;;;6.30;99.90;;;;;;5053748;28;20199;-78
2022/04/17 05:24:11;;;;;;;6.60;5.90;;;6.30;99.90;;;;;;5052771;28;20209;-82
2022/04/17 05:26:38;;;;;;;7.60;6.20;;;6.20;99.90;;;;;;5053288;28;20198;-78
2022/04/17 05:29:05;;;;;;;7.47;6.77;;;6.20;99.90;;;;;;5051810;28;20207;-81
2022/04/17 05:31:32;;;;;;;7.83;6.47;;;6.20;99.90;;;;;;5053124;28;20194;-78
2022/04/17 05:34:00;;;;;;;7.63;6.53;;;6.20;99.90;;;;;;5052976;28;20191;-80
2022/04/17 05:36:27;;;;;;;15.63;7.47;;;6.20;99.90;;;;;;5053075;28;20693;-77
2022/04/17 05:38:55;;;;;;;11.67;7.50;;;6.30;99.90;;;;;;5052945;28;20202;-76
2022/04/17 05:41:24;;;;;;;8.03;7.10;;;6.30;99.90;;;;;;5053136;28;20226;-79
2022/04/17 05:43:52;;;;;;;7.63;6.93;;;6.30;99.90;;;;;;5050037;28;20240;-76
2022/04/17 05:46:19;;;;;;;8.40;6.77;;;6.40;99.90;;;;;;5053055;28;20214;-76
2022/04/17 05:48:47;;;;;;;7.60;6.90;;;6.50;99.90;;;;;;5052823;28;20199;-80
2022/04/17 05:51:15;;;;;;;9.20;7.10;;;6.50;99.90;;;;;;5053056;28;20182;-77
2022/04/17 05:53:42;;;;;;;8.70;7.20;;;6.60;99.90;;;;;;5052844;28;20191;-77
2022/04/17 05:56:09;;;;;;;7.40;6.70;;;6.70;99.90;;;;;;5052451;28;20712;-82
2022/04/17 05:58:36;;;;;;;6.77;6.17;;;6.70;99.90;;;;;;5051932;28;20682;-78
2022/04/17 06:01:03;;;;;;;7.50;6.80;;;6.80;99.90;;;;;;5052462;28;20227;-78
2022/04/17 06:03:30;;;;;;;6.57;5.97;;;6.90;99.90;;;;;;5052551;28;20206;-77
2022/04/17 06:05:57;;;;;;;6.23;5.63;;;7.00;99.90;;;;;;5052492;28;20199;-76
2022/04/17 06:08:25;;;;;;;6.47;5.70;;;7.10;99.90;;;;;;5052190;28;20190;-76
2022/04/17 06:10:51;;;;;;;6.37;5.87;;;7.20;99.90;;;;;;5052760;28;20187;-77
2022/04/17 06:13:18;;;;;;;6.17;5.67;;;7.30;99.90;;;;;;5052322;28;20209;-77
2022/04/17 06:15:45;;;;;;;5.57;5.07;;;7.40;99.90;;;;;;5052647;28;20646;-77
2022/04/17 06:18:12;;;;;;;5.70;5.20;;;7.60;99.90;;;;;;5052890;28;20601;-77
2022/04/17 06:20:39;;;;;;;4.80;4.40;;;7.70;99.90;;;;;;5052804;28;20210;-77
2022/04/17 06:23:05;;;;;;;5.03;4.63;;;7.80;99.90;;;;;;5053025;28;20229;-77
2022/04/17 06:25:33;;;;;;;5.07;4.40;;;7.80;99.90;;;;;;5052704;28;20562;-78
2022/04/17 06:28:00;;;;;;;5.27;4.27;;;7.90;99.90;;;;;;5052841;28;20654;-78
2022/04/17 06:30:28;;;;;;;5.33;4.17;;;7.90;99.90;;;;;;5052634;28;20264;-81
2022/04/17 06:32:55;;;;;;;6.90;4.87;;;7.90;99.90;;;;;;5052664;28;20203;-80
2022/04/17 06:35:22;;;;;;;5.13;3.77;;;8.00;99.90;;;;;;5052793;28;20200;-77
2022/04/17 06:37:50;;;;;;;5.53;4.43;;;8.10;99.90;;;;;;5052495;28;20227;-81
2022/04/17 06:40:18;;;;;;;5.17;4.20;;;8.30;99.90;;;;;;5051923;28;20190;-81
2022/04/17 06:42:47;;;;;;;6.03;4.63;;;8.30;99.90;;;;;;5052498;28;20198;-81
2022/04/17 06:45:14;;;;;;;5.40;4.17;;;8.50;99.90;;;;;;5049880;28;20609;-77
2022/04/17 06:47:41;;;;;;;5.00;4.30;;;8.60;99.90;;;;;;5051449;28;20203;-79
2022/04/17 06:50:08;;;;;;;4.87;4.40;;;8.60;99.90;;;;;;5051907;28;20195;-80
2022/04/17 06:52:35;;;;;;;4.97;4.07;;;8.80;99.90;;;;;;5052255;28;20195;-81
2022/04/17 06:55:03;;;;;;;5.17;4.20;;;8.90;99.90;;;;;;5052390;28;20260;-78
2022/04/17 06:57:30;;;;;;;7.07;4.27;;;9.00;99.90;;;;;;5052227;28;20246;-77
2022/04/17 07:00:04;;;;;;;3.93;3.63;;;9.10;99.90;;;;;;5052029;28;20194;-78
2022/04/17 07:02:30;;;;;;;5.27;4.03;;;9.10;99.90;;;;;;5051657;28;20673;-76
2022/04/17 07:04:57;;;;;;;4.10;3.70;;;9.30;99.90;;;;;;5052617;28;20199;-79
2022/04/17 07:07:24;;;;;;;3.37;3.07;;;9.40;99.90;;;;;;5052212;28;20202;-82
2022/04/17 07:09:50;;;;;;;4.77;4.20;;;9.50;99.90;;;;;;5052369;28;20217;-78
2022/04/17 07:12:17;;;;;;;4.37;3.37;;;9.70;99.90;;;;;;5052331;28;20202;-79
2022/04/17 07:14:44;;;;;;;3.53;3.23;;;9.70;99.90;;;;;;5052566;28;20202;-77
2022/04/17 07:17:12;;;;;;;6.90;4.50;;;9.70;99.90;;;;;;5052236;28;20701;-76
2022/04/17 07:19:39;;;;;;;5.53;3.23;;;9.90;99.90;;;;;;5052594;28;20197;-76
2022/04/17 07:22:06;;;;;;;3.83;3.13;;;10.00;99.90;;;;;;5052386;28;20210;-76
2022/04/17 07:24:33;;;;;;;3.47;2.60;;;10.20;99.90;;;;;;5052141;28;20194;-76
2022/04/17 07:27:01;;;;;;;2.57;2.37;;;10.30;99.90;;;;;;5051857;28;20294;-77
2022/04/17 07:29:28;;;;;;;2.87;2.13;;;10.50;99.90;;;;;;5052608;28;20591;-76
2022/04/17 07:31:55;;;;;;;6.20;2.50;;;10.80;99.90;;;;;;5054722;28;20198;-76
2022/04/17 07:34:23;;;;;;;2.37;2.00;;;10.90;99.90;;;;;;5055198;28;20706;-76
2022/04/17 07:36:52;;;;;;;3.63;2.30;;;10.90;99.90;;;;;;5054774;28;20218;-78
2022/04/17 07:39:19;;;;;;;2.97;2.70;;;11.00;99.90;;;;;;5055403;28;20256;-75
2022/04/17 07:41:46;;;;;;;2.37;2.10;;;11.10;99.90;;;;;;5055978;28;20190;-75
2022/04/17 07:44:14;;;;;;;1.83;1.73;;;11.20;99.90;;;;;;5055617;28;20206;-77
2022/04/17 07:46:41;;;;;;;3.10;2.50;;;11.30;99.70;;;;;;5054952;28;20194;-77
2022/04/17 07:49:08;;;;;;;2.10;2.00;;;11.40;99.60;;;;;;5055623;28;20259;-75
2022/04/17 07:51:37;;;;;;;2.67;2.13;;;11.60;99.70;;;;;;5054731;28;20194;-82
2022/04/17 07:54:04;;;;;;;2.33;2.10;;;11.80;99.70;;;;;;5055176;28;20186;-75
2022/04/17 07:56:31;;;;;;;1.70;1.60;;;12.00;98.80;;;;;;5054309;28;20206;-78
2022/04/17 07:58:58;;;;;;;2.13;1.80;;;11.90;98.20;;;;;;5054515;28;20191;-76
2022/04/17 08:01:24;;;;;;;1.87;1.73;;;11.90;98.20;;;;;;5054363;28;20223;-75
2022/04/17 08:03:51;;;;;;;1.80;1.70;;;12.10;98.70;;;;;;5054396;28;20321;-75
2022/04/17 08:06:20;;;;;;;2.00;1.80;;;12.00;97.60;;;;;;5054677;28;20199;-76
2022/04/17 08:08:51;;;;;;;2.23;1.90;;;12.20;97.60;;;;;;5053537;28;20359;-76
2022/04/17 08:11:18;;;;;;;3.03;2.03;;;12.40;96.70;;;;;;5052756;28;20680;-79
2022/04/17 08:13:46;;;;;;;1.73;1.53;;;12.40;97.00;;;;;;5054076;28;20533;-78
2022/04/17 08:16:14;;;;;;;1.90;1.80;;;12.60;96.70;;;;;;5054309;28;20678;-82
2022/04/17 08:18:41;;;;;;;2.67;2.00;;;12.50;96.50;;;;;;5053975;28;20231;-83
2022/04/17 08:21:07;;;;;;;2.90;1.80;;;12.60;96.40;;;;;;5054702;28;20276;-77
2022/04/17 08:23:37;;;;;;;2.13;1.93;;;12.70;96.10;;;;;;5054442;28;20221;-82
2022/04/17 08:26:05;;;;;;;2.60;2.37;;;12.90;97.10;;;;;;5054762;28;20213;-78
2022/04/17 08:28:33;;;;;;;2.30;2.10;;;13.00;95.50;;;;;;5054703;28;20664;-78
2022/04/17 08:31:00;;;;;;;1.80;1.70;;;13.10;95.40;;;;;;5055001;28;20211;-78
2022/04/17 08:33:27;;;;;;;2.23;2.03;;;13.30;96.20;;;;;;5054247;28;20201;-82
2022/04/17 08:35:55;;;;;;;1.63;1.53;;;13.30;95.50;;;;;;5054119;28;20243;-82
2022/04/17 08:38:22;;;;;;;2.70;2.20;;;13.40;95.90;;;;;;5052601;28;20707;-82
2022/04/17 08:40:49;;;;;;;2.00;1.90;;;13.60;95.80;;;;;;5053722;28;20190;-89
2022/04/17 08:43:21;;;;;;;3.37;2.00;;;13.70;95.20;;;;;;5054562;28;20190;-86
2022/04/17 08:45:50;;;;;;;2.27;1.83;;;13.50;93.80;;;;;;5054875;28;20237;-86
2022/04/17 08:48:17;;;;;;;4.47;2.03;;;13.40;94.50;;;;;;5054830;28;20197;-84
2022/04/17 08:50:46;;;;;;;1.80;1.70;;;13.60;95.00;;;;;;5054322;28;20202;-86
2022/04/17 08:53:18;;;;;;;2.17;1.90;;;13.80;94.70;;;;;;5054181;28;20205;-85
2022/04/17 08:55:45;;;;;;;2.00;1.80;;;13.90;94.70;;;;;;5053992;28;20210;-85
2022/04/17 08:58:12;;;;;;;2.07;1.97;;;14.10;94.50;;;;;;5054395;28;20237;-85
2022/04/17 09:00:40;;;;;;;3.97;3.63;;;14.30;94.10;;;;;;5054351;28;20717;-86
2022/04/17 09:03:11;;;;;;;2.10;2.00;;;14.20;94.10;;;;;;5054362;28;20222;-86
2022/04/17 09:05:38;;;;;;;2.50;2.30;;;14.10;93.40;;;;;;5054199;28;20216;-86
2022/04/17 09:08:16;;;;;;;3.20;1.90;;;13.90;93.80;;;;;;5054304;28;20627;-86
2022/04/17 09:10:54;;;;;;;3.93;2.10;;;14.00;92.70;;;;;;5054605;28;20212;-86
2022/04/17 09:13:28;;;;;;;2.03;1.90;;;14.30;93.50;;;;;;5053913;28;20252;-85
2022/04/17 09:15:56;;;;;;;2.00;1.90;;;14.10;92.30;;;;;;5054178;28;20598;-83
2022/04/17 09:18:28;;;;;;;3.87;2.10;;;14.30;92.70;;;;;;5053804;28;20241;-92
2022/04/17 09:20:55;;;;;;;2.93;1.90;;;14.50;91.80;;;;;;5053013;28;20213;-84
2022/04/17 09:23:33;;;;;;;3.10;1.73;;;14.70;91.60;;;;;;5053850;28;20234;-85
2022/04/17 09:26:00;;;;;;;4.43;2.00;;;14.80;91.50;;;;;;5054158;28;20203;-86
2022/04/17 09:28:32;;;;;;;2.50;2.30;;;14.90;91.60;;;;;;5054094;28;20210;-86
2022/04/17 09:31:01;;;;;;;2.30;2.10;;;14.90;89.60;;;;;;5052992;28;20434;-86
2022/04/17 09:33:37;;;;;;;2.20;2.10;;;15.10;90.80;;;;;;5053795;28;20203;-85
2022/04/17 09:36:05;;;;;;;3.90;1.80;;;15.20;90.30;;;;;;5053791;28;20257;-86
2022/04/17 09:38:33;;;;;;;1.90;1.80;;;15.30;89.30;;;;;;5053452;28;20234;-85
2022/04/17 09:41:07;;;;;;;2.00;1.80;;;15.40;89.40;;;;;;5053270;28;20198;-86
2022/04/17 09:43:35;;;;;;;2.83;2.17;;;15.40;90.30;;;;;;5053118;28;20580;-81
2022/04/17 09:46:04;;;;;;;2.57;1.90;;;15.40;89.90;;;;;;5052292;28;20234;-81
2022/04/17 09:48:33;;;;;;;1.77;1.67;;;15.50;90.00;;;;;;5052928;28;20587;-81
2022/04/17 09:51:01;;;;;;;2.20;2.00;;;15.60;89.70;;;;;;5052952;28;20577;-83
2022/04/17 09:53:36;;;;;;;2.30;2.20;;;15.70;89.50;;;;;;5053070;28;20217;-81
2022/04/17 09:56:08;;;;;;;2.53;2.00;;;15.90;88.50;;;;;;5053073;28;20209;-82
2022/04/17 09:58:39;;;;;;;2.67;2.20;;;16.00;88.20;;;;;;5052952;28;20238;-82
2022/04/17 10:01:07;;;;;;;2.53;2.43;;;16.10;87.90;;;;;;5052860;28;20718;-80
2022/04/17 10:03:39;;;;;;;2.90;2.03;;;15.90;87.00;;;;;;5052511;28;20310;-81
2022/04/17 10:06:07;;;;;;;2.00;1.90;;;15.90;88.30;;;;;;5052926;28;20238;-81
2022/04/17 10:08:34;;;;;;;3.30;2.30;;;15.90;87.70;;;;;;5052675;28;20575;-80
2022/04/17 10:11:01;;;;;;;3.53;2.50;;;16.20;89.90;;;;;;5052810;28;20222;-81
2022/04/17 10:13:30;;;;;;;3.00;2.50;;;16.50;87.90;;;;;;5052829;28;20213;-81
2022/04/17 10:16:00;;;;;;;2.53;2.43;;;16.20;85.50;;;;;;5052975;28;20216;-81
2022/04/17 10:18:35;;;;;;;2.70;2.50;;;16.20;86.40;;;;;;5051905;28;20448;-81
2022/04/17 10:21:04;;;;;;;3.37;2.90;;;16.20;85.90;;;;;;5052637;28;20615;-82
2022/04/17 10:23:33;;;;;;;5.10;3.30;;;15.90;87.00;;;;;;5052347;28;20201;-82
2022/04/17 10:26:04;;;;;;;5.70;3.87;;;15.80;90.60;;;;;;5053167;28;20192;-83
2022/04/17 10:28:36;;;;;;;5.10;3.60;;;15.70;91.20;;;;;;5052965;28;20196;-82
2022/04/17 10:31:14;;;;;;;3.37;3.17;;;15.80;91.20;;;;;;5052835;28;20200;-82
2022/04/17 10:34:09;;;;;;;4.20;3.80;;;16.10;90.90;;;;;;5052200;28;20199;-82
2022/04/17 10:36:57;;;;;;;3.33;2.90;;;16.00;90.20;;;;;;5062544;28;20648;-82
2022/04/17 10:39:29;;;;;;;4.90;3.57;;;16.20;90.50;;;;;;5072225;28;20238;-82
2022/04/17 10:41:56;;;;;;;4.60;3.50;;;16.10;90.00;;;;;;5072216;28;20203;-82
2022/04/17 10:44:29;;;;;;;3.90;3.60;;;16.10;90.00;;;;;;5072358;28;20298;-82
2022/04/17 10:46:56;;;;;;;3.87;3.53;;;16.00;89.30;;;;;;5064559;28;20207;-81
2022/04/17 10:49:29;;;;;;;4.97;3.90;;;16.00;90.00;;;;;;5032846;28;20204;-81
2022/04/17 10:51:58;;;;;;;3.93;3.63;;;16.20;90.90;;;;;;5032011;28;20304;-81
2022/04/17 10:54:26;;;;;;;4.10;3.80;;;16.30;90.00;;;;;;5034634;28;20247;-81
2022/04/17 10:57:01;;;;;;;3.87;3.50;;;16.30;90.20;;;;;;5032338;28;20217;-82
2022/04/17 10:59:29;;;;;;;3.43;3.23;;;16.30;90.50;;;;;;5032208;28;20232;-81
2022/04/17 11:02:01;;;;;;;3.83;3.33;;;16.50;90.60;;;;;;5031647;28;20233;-80
2022/04/17 11:04:30;;;;;;;4.27;3.73;;;16.70;90.90;;;;;;5033146;28;20214;-81
2022/04/17 11:07:19;;;;;;;4.20;3.80;;;16.80;90.70;;;;;;5035821;28;20662;-81
2022/04/17 11:09:46;;;;;;;4.53;4.13;;;16.60;89.00;;;;;;5035578;28;20213;-80
2022/04/17 11:12:27;;;;;;;4.10;3.80;;;16.70;90.00;;;;;;5050745;28;20220;-80
2022/04/17 11:14:55;;;;;;;3.90;3.50;;;16.80;89.90;;;;;;5056051;28;20217;-80
2022/04/17 11:17:23;;;;;;;3.83;3.53;;;16.90;89.60;;;;;;5055548;28;20209;-80
2022/04/17 11:19:55;;;;;;;4.90;3.77;;;16.90;89.60;;;;;;5055996;28;20544;-81
2022/04/17 11:22:26;;;;;;;3.80;3.50;;;16.90;88.10;;;;;;5046390;28;20216;-81
2022/04/17 11:25:06;;;;;;;4.00;3.70;;;16.80;86.90;;;;;;5038016;28;20248;-81
2022/04/17 11:27:40;;;;;;;4.33;3.90;;;16.90;87.60;;;;;;5035737;28;20211;-80
2022/04/17 11:30:09;;;;;;;4.10;3.90;;;16.80;88.30;;;;;;5035801;28;20206;-80
2022/04/17 11:32:53;;;;;;;4.07;3.70;;;16.90;88.80;;;;;;5034645;28;20426;-80
2022/04/17 11:35:23;;;;;;;3.50;3.20;;;17.30;88.30;;;;;;5036119;28;20253;-80
2022/04/17 11:37:55;;;;;;;3.97;3.43;;;17.40;87.40;;;;;;5035142;28;20199;-84
2022/04/17 11:40:24;;;;;;;3.60;3.30;;;17.40;85.60;;;;;;5063667;28;20213;-83
2022/04/17 11:42:53;;;;;;;7.07;3.50;;;17.40;86.60;;;;;;5075116;28;20198;-84
2022/04/17 11:45:22;;;;;;;3.90;3.57;;;17.50;85.40;;;;;;5075288;28;20660;-83
2022/04/17 11:47:49;;;;;;;5.37;4.13;;;17.40;83.90;;;;;;5075441;28;20209;-82
2022/04/17 11:50:27;;;;;;;5.10;3.20;;;17.70;85.80;;;;;;5075336;28;20202;-78
2022/04/17 11:52:56;;;;;;;3.17;2.80;;;17.90;85.80;;;;;;5075014;28;20205;-79
2022/04/17 11:55:27;;;;;;;4.60;3.30;;;17.90;86.80;;;;;;5075226;28;20583;-78
2022/04/17 11:57:55;;;;;;;3.67;3.40;;;17.90;85.20;;;;;;5075233;28;20236;-78
2022/04/17 12:00:22;;;;;;;4.00;3.60;;;17.90;85.20;;;;;;5075015;28;20233;-79
2022/04/17 12:02:55;;;;;;;3.97;3.60;;;17.80;84.10;;;;;;5074909;28;20211;-78
2022/04/17 12:05:23;;;;;;;3.60;3.30;;;17.80;85.00;;;;;;5074907;28;20206;-78
2022/04/17 12:07:57;;;;;;;3.77;3.50;;;18.10;85.60;;;;;;5074651;28;20202;-78
2022/04/17 12:10:24;;;;;;;5.80;3.63;;;18.30;85.10;;;;;;5075238;28;20218;-80
2022/04/17 12:12:51;;;;;;;4.20;3.37;;;18.20;85.90;;;;;;5075300;28;20224;-80
2022/04/17 12:15:19;;;;;;;4.50;4.03;;;18.00;86.50;;;;;;5050889;28;20911;-80
2022/04/17 12:17:57;;;;;;;4.57;4.00;;;18.20;86.00;;;;;;5035857;28;20232;-79
2022/04/17 12:20:26;;;;;;;4.80;4.00;;;18.20;85.60;;;;;;5034389;28;20212;-82
2022/04/17 12:22:53;;;;;;;4.73;3.93;;;18.40;85.70;;;;;;5034590;28;20209;-79
2022/04/17 12:25:22;;;;;;;4.03;3.63;;;18.40;85.90;;;;;;5034212;28;20236;-78
2022/04/17 12:27:50;;;;;;;3.87;3.57;;;18.60;85.90;;;;;;5034266;28;20356;-79
2022/04/17 12:30:19;;;;;;;4.17;3.87;;;18.70;83.50;;;;;;5038373;28;20204;-79
2022/04/17 12:32:47;;;;;;;4.43;4.13;;;18.90;83.60;;;;;;5053809;28;20508;-78
2022/04/17 12:35:26;;;;;;;4.67;4.30;;;18.80;83.30;;;;;;5054580;28;20252;-80
2022/04/17 12:38:04;;;;;;;4.17;3.87;;;18.80;82.60;;;;;;5054354;28;20202;-79
2022/04/17 12:40:32;;;;;;;3.40;3.10;;;18.70;82.90;;;;;;5051354;28;20648;-79
2022/04/17 12:43:15;;;;;;;3.00;2.80;;;19.00;82.20;;;;;;5053719;28;20280;-78
2022/04/17 12:45:56;;;;;;;3.90;3.60;;;19.30;81.40;;;;;;5052947;28;20223;-79
2022/04/17 12:48:27;;;;;;;3.80;3.40;;;19.20;80.80;;;;;;5052866;28;20209;-79
2022/04/17 12:51:02;;;;;;;3.40;3.20;;;19.20;81.60;;;;;;5052102;28;20206;-80
2022/04/17 12:53:36;;;;;;;3.87;3.53;;;19.00;80.80;;;;;;5053922;28;20209;-80
2022/04/17 12:56:03;;;;;;;4.23;3.90;;;19.10;81.20;;;;;;5053265;28;20289;-78
2022/04/17 12:58:30;;;;;;;4.30;3.90;;;19.30;81.50;;;;;;5053285;28;20218;-80
2022/04/17 13:00:58;;;;;;;3.80;3.50;;;19.20;81.20;;;;;;5053487;28;20582;-78
2022/04/17 13:03:35;;;;;;;4.03;3.37;;;19.20;82.20;;;;;;5051573;28;20224;-78
2022/04/17 13:06:05;;;;;;;3.97;3.57;;;19.40;81.10;;;;;;5033461;28;20253;-78
2022/04/17 13:08:32;;;;;;;3.57;3.27;;;19.30;79.60;;;;;;5033722;28;20585;-79
2022/04/17 13:10:59;;;;;;;3.73;3.47;;;19.50;79.80;;;;;;5033664;28;20208;-78
2022/04/17 13:13:39;;;;;;;4.00;3.70;;;19.70;78.50;;;;;;5032195;28;20430;-80